Airfield :
LOGIN :

Register | Disclaimer

   EN    FR    IT 

 










Legend :    VFR   Marginal VFR   IFR   Intensive IFR   Very Intensive IFR
Visi :
Ceiling :
>= 8 km
>= 3000ft
5 to 8 km
1000 to 3000 ft
1500m to 5 km
500 to 1000 ft
800 to 1500m
200 to 500 ft
< 800m
< 200 ft
Symbols :   Thunderstorms  Fog  Heavy snow  Heavy precipitations  Wind > 20 kt
SIGMETs :     Misc.  Thunderstorms  Icing  Turbulence  Mountain Waves  Volcanic Ashes







- Airport Elevation : 1036 ft
- IATA code : ERF


EDDE - Erfurt

CURRENT METAR :
  • 251150Z 26012KT 220V300 9999 SCT030 BKN066 09/03 Q1006 NOSIG

EXPIRED METARs :
  • 251120Z 25015KT 9999 SCT023 BKN052 08/03 Q1006 NOSIG
  • 251050Z 25012KT 9999 SCT023 BKN052 07/03 Q1006 NOSIG
  • 251020Z 26011KT 9999 -RA FEW014 BKN046 06/04 Q1006 NOSIG
  • 250950Z 27011KT 230V290 9999 -RADZ FEW011 SCT015 BKN044 05/04 Q1006 NOSIG
  • 250920Z 28014KT 9999 -RA SCT017 BKN036 05/03 Q1006 NOSIG

TAF TAF EDDE
Valid from the 25 at 12:00 until the 26 at 12:00 UTC


251100Z 2512/2612 28010KT CAVOK
PROB40
TEMPO 2512/2516 28015G25KT
BECMG 2517/2519 29005KT
BECMG 2523/2601 36004KT
No reported NOTAMs for that airfield.



MET'MAP, your aeronautical weather chart ! - Copyright ORBIFLY December 2007 - Disclaimer

ORBIFLY MET'MAP TEAM :

Programming & Development : Alexandra Zaïnal
Concept & Development : Baudouin d'Aumeries
Co-Development & Prog : Marc-Olivier Méhu
Technical & hardware support : Manuel Goepfert

Contact : metmap@orbifly.com




SOURCES & CREDITS :

   NOAA